Time;durP1;ratioP1;P1;durP2;ratioP2;P2;SDS_P1;SDS_P2;PMS_P1;PMS_P2;Temp;Humidity;BMP_temperature;BMP_pressure;BME280_temperature;BME280_humidity;BME280_pressure;Samples;Min_cycle;Max_cycle;Signal;HPM_P1;HPM_P2
2021/03/04 00:01:01;;;;;;;32.42;21.63;;;15.80;61.10;;;;;;4797129;29;20038;-70
2021/03/04 00:03:28;;;;;;;31.75;20.58;;;15.80;61.00;;;;;;4796983;29;20075;-62
2021/03/04 00:05:53;;;;;;;31.48;20.48;;;15.90;61.00;;;;;;4797351;29;20986;-62
2021/03/04 00:08:19;;;;;;;32.95;21.45;;;15.90;58.30;;;;;;4797282;29;20560;-62
2021/03/04 00:10:45;;;;;;;30.10;20.33;;;15.80;58.90;;;;;;4797403;29;20514;-62
2021/03/04 00:13:11;;;;;;;32.88;22.10;;;15.90;59.00;;;;;;4797481;29;20047;-61
2021/03/04 00:15:39;;;;;;;33.28;20.70;;;15.90;59.10;;;;;;4797604;29;20047;-70
2021/03/04 00:18:06;;;;;;;31.40;20.40;;;15.80;58.90;;;;;;4790530;29;20045;-70
2021/03/04 00:20:33;;;;;;;30.58;20.13;;;15.80;59.00;;;;;;4797237;29;20047;-69
2021/03/04 00:22:59;;;;;;;32.90;21.52;;;15.80;59.10;;;;;;4796693;29;20035;-70
2021/03/04 00:25:29;;;;;;;30.63;20.27;;;15.80;59.10;;;;;;4797197;29;20187;-70
2021/03/04 00:27:55;;;;;;;30.65;20.55;;;15.80;59.10;;;;;;4796246;29;20080;-70
2021/03/04 00:30:22;;;;;;;29.52;18.70;;;15.80;59.10;;;;;;4793860;29;20508;-70
2021/03/04 00:32:48;;;;;;;28.98;19.77;;;15.80;59.00;;;;;;4800683;29;20101;-70
2021/03/04 00:35:14;;;;;;;28.63;19.40;;;15.80;59.10;;;;;;4800786;29;20057;-70
2021/03/04 00:37:40;;;;;;;28.42;18.38;;;15.70;59.10;;;;;;4800118;29;20039;-69
2021/03/04 00:40:13;;;;;;;28.33;18.58;;;15.70;59.40;;;;;;4800563;29;20046;-69
2021/03/04 00:42:39;;;;;;;26.23;18.00;;;15.70;59.00;;;;;;4800692;29;20077;-69
2021/03/04 00:45:18;;;;;;;28.63;18.40;;;15.70;58.30;;;;;;4800110;29;20049;-69
2021/03/04 00:47:44;;;;;;;30.20;19.58;;;15.70;58.60;;;;;;4799998;29;20074;-70
2021/03/04 00:50:11;;;;;;;27.65;18.00;;;15.70;58.70;;;;;;4800630;29;20396;-70
2021/03/04 00:52:37;;;;;;;26.75;18.15;;;15.60;58.60;;;;;;4800394;29;22386;-70
2021/03/04 00:55:03;;;;;;;27.40;17.42;;;15.60;59.00;;;;;;4799773;29;20050;-70
2021/03/04 00:57:29;;;;;;;25.75;17.40;;;15.60;59.00;;;;;;4800063;29;20461;-69
2021/03/04 00:59:55;;;;;;;26.08;16.77;;;15.60;58.90;;;;;;4813696;29;20244;-70
2021/03/04 01:02:20;;;;;;;28.48;18.17;;;15.60;58.70;;;;;;4800480;29;20123;-70
2021/03/04 01:04:47;;;;;;;27.35;17.55;;;15.70;58.70;;;;;;4799933;29;20451;-70
2021/03/04 01:07:14;;;;;;;24.90;16.33;;;15.70;58.60;;;;;;4799991;29;20054;-70
2021/03/04 01:09:40;;;;;;;25.25;16.08;;;15.70;58.60;;;;;;4800507;29;20035;-70
2021/03/04 01:12:06;;;;;;;26.58;16.13;;;15.70;58.60;;;;;;4799756;29;20066;-70
2021/03/04 01:14:32;;;;;;;24.67;15.52;;;15.70;58.50;;;;;;4799015;29;20046;-61
2021/03/04 01:16:59;;;;;;;22.67;14.55;;;15.70;58.40;;;;;;4799347;29;20054;-62
2021/03/04 01:19:25;;;;;;;21.70;14.43;;;15.70;58.40;;;;;;4800237;29;20061;-61
2021/03/04 01:21:51;;;;;;;23.70;14.75;;;15.70;58.30;;;;;;4799424;29;20513;-61
2021/03/04 01:24:16;;;;;;;22.67;15.00;;;15.80;57.90;;;;;;4798054;29;20047;-62
2021/03/04 01:26:42;;;;;;;19.38;13.35;;;15.70;57.80;;;;;;4799637;29;20487;-62
2021/03/04 01:29:08;;;;;;;19.45;13.93;;;15.70;57.80;;;;;;4799384;29;20034;-62
2021/03/04 01:31:34;;;;;;;17.73;12.52;;;15.70;57.90;;;;;;4798508;29;20043;-62
2021/03/04 01:34:00;;;;;;;19.73;12.27;;;15.70;58.00;;;;;;4793937;29;20038;-62
2021/03/04 01:36:25;;;;;;;18.95;12.23;;;15.70;58.00;;;;;;4798221;29;20554;-61
2021/03/04 01:38:51;;;;;;;15.10;10.93;;;15.70;57.90;;;;;;4799908;29;20043;-61
2021/03/04 01:41:17;;;;;;;16.90;10.77;;;15.50;57.50;;;;;;4797818;29;20138;-62
2021/03/04 01:43:43;;;;;;;16.38;11.52;;;15.50;58.00;;;;;;4799032;29;20047;-61
2021/03/04 01:46:09;;;;;;;17.05;11.13;;;15.50;58.00;;;;;;4799072;29;20126;-61
2021/03/04 01:48:35;;;;;;;15.75;10.82;;;15.50;57.90;;;;;;4799384;29;20129;-62
2021/03/04 01:51:01;;;;;;;13.88;10.00;;;15.50;57.60;;;;;;4798895;29;20062;-62
2021/03/04 01:53:27;;;;;;;14.85;10.55;;;15.60;57.60;;;;;;4798919;29;20096;-62
2021/03/04 01:55:54;;;;;;;14.40;9.93;;;15.60;57.60;;;;;;4797943;29;20055;-62
2021/03/04 01:58:20;;;;;;;15.48;10.52;;;15.50;55.90;;;;;;4799149;29;20366;-62
2021/03/04 02:00:46;;;;;;;13.95;9.43;;;15.40;57.30;;;;;;4799317;29;20059;-61
2021/03/04 02:03:12;;;;;;;16.70;10.75;;;15.40;57.60;;;;;;4798712;29;20069;-61
2021/03/04 02:05:38;;;;;;;14.68;9.60;;;15.40;57.60;;;;;;4798993;29;20063;-62
2021/03/04 02:08:24;;;;;;;14.35;8.75;;;15.50;57.60;;;;;;4799644;29;20043;-62
2021/03/04 02:11:04;;;;;;;14.63;9.48;;;15.50;57.50;;;;;;4798838;29;20814;-61
2021/03/04 02:13:43;;;;;;;12.40;8.85;;;15.50;57.40;;;;;;4798363;29;20035;-62
2021/03/04 02:16:20;;;;;;;11.98;8.27;;;15.50;57.20;;;;;;4798737;29;20046;-62
2021/03/04 02:18:51;;;;;;;12.95;8.98;;;15.60;57.20;;;;;;4799058;29;20050;-61
2021/03/04 02:21:54;;;;;;;12.75;8.45;;;15.60;57.10;;;;;;4798698;29;20062;-62
2021/03/04 02:24:27;;;;;;;12.38;8.15;;;15.60;57.10;;;;;;4795942;29;20121;-62
2021/03/04 02:27:12;;;;;;;12.32;8.82;;;15.50;57.20;;;;;;4798499;29;20051;-62
2021/03/04 02:29:40;;;;;;;12.50;8.50;;;15.50;57.40;;;;;;4798657;29;20047;-61
2021/03/04 02:32:08;;;;;;;14.15;8.15;;;15.50;57.50;;;;;;4798197;29;20039;-61
2021/03/04 02:34:35;;;;;;;11.88;7.82;;;15.40;57.60;;;;;;4798295;29;20046;-62
2021/03/04 02:37:02;;;;;;;12.13;8.15;;;15.50;57.60;;;;;;4798157;29;20074;-61
2021/03/04 02:39:30;;;;;;;12.13;8.55;;;15.50;57.50;;;;;;4798290;29;20035;-61
2021/03/04 02:41:56;;;;;;;12.68;8.35;;;15.50;57.30;;;;;;4798333;29;20120;-61
2021/03/04 02:44:24;;;;;;;13.45;9.30;;;15.50;57.40;;;;;;4798298;29;20054;-61
2021/03/04 02:46:51;;;;;;;14.77;8.45;;;15.50;57.30;;;;;;4798598;29;20147;-61
2021/03/04 02:49:19;;;;;;;14.15;8.60;;;15.50;57.20;;;;;;4798284;29;20046;-61
2021/03/04 02:51:46;;;;;;;10.88;7.85;;;15.50;57.00;;;;;;4797506;29;20046;-61
2021/03/04 02:54:13;;;;;;;14.40;9.07;;;15.50;57.00;;;;;;4798132;29;20050;-61
2021/03/04 02:56:41;;;;;;;13.75;8.30;;;15.50;57.10;;;;;;4798202;29;20051;-61
2021/03/04 02:59:08;;;;;;;12.70;8.45;;;15.50;57.10;;;;;;4798365;29;20986;-61
2021/03/04 03:01:35;;;;;;;10.88;8.05;;;15.50;57.10;;;;;;4797877;29;20060;-61
2021/03/04 03:04:03;;;;;;;11.25;7.82;;;15.40;57.00;;;;;;4797645;29;20043;-62
2021/03/04 03:06:29;;;;;;;11.02;7.57;;;15.40;57.10;;;;;;4797660;29;20047;-61
2021/03/04 03:08:56;;;;;;;11.27;7.68;;;15.00;57.00;;;;;;4797599;29;20399;-61
2021/03/04 03:11:22;;;;;;;10.68;7.57;;;14.90;57.70;;;;;;4796566;29;20072;-61
2021/03/04 03:13:53;;;;;;;9.75;7.07;;;14.90;58.00;;;;;;4797677;29;20066;-61
2021/03/04 03:16:18;;;;;;;11.80;7.72;;;15.00;58.00;;;;;;4797799;29;20054;-62
2021/03/04 03:18:44;;;;;;;10.25;6.70;;;15.00;58.00;;;;;;4797753;29;20046;-61
2021/03/04 03:21:11;;;;;;;10.85;7.47;;;15.00;57.80;;;;;;4797754;29;20042;-61
2021/03/04 03:23:37;;;;;;;10.65;7.65;;;14.90;57.50;;;;;;4797455;29;20403;-61
2021/03/04 03:26:03;;;;;;;9.27;6.93;;;14.90;57.70;;;;;;4797248;29;20047;-62
2021/03/04 03:28:29;;;;;;;9.88;7.50;;;14.90;57.90;;;;;;4797190;29;20211;-61
2021/03/04 03:30:55;;;;;;;9.57;6.63;;;14.90;58.00;;;;;;4791229;29;20039;-61
2021/03/04 03:33:23;;;;;;;8.02;5.97;;;15.00;57.90;;;;;;4797400;29;20039;-61
2021/03/04 03:35:48;;;;;;;9.93;6.55;;;15.10;58.20;;;;;;4797490;29;20077;-61
2021/03/04 03:38:15;;;;;;;8.82;6.28;;;15.10;57.70;;;;;;4797069;29;20114;-62
2021/03/04 03:40:45;;;;;;;8.93;6.22;;;15.20;57.60;;;;;;4797697;29;20042;-62
2021/03/04 03:43:14;;;;;;;9.73;6.05;;;15.20;57.40;;;;;;4798035;29;20719;-61
2021/03/04 03:45:46;;;;;;;8.73;6.40;;;15.30;57.30;;;;;;4797248;29;20043;-61
2021/03/04 03:48:14;;;;;;;8.25;5.35;;;15.30;57.10;;;;;;4797115;29;20042;-61
2021/03/04 03:50:42;;;;;;;8.95;6.68;;;15.30;57.10;;;;;;4797091;29;20081;-61
2021/03/04 03:53:11;;;;;;;11.85;7.10;;;15.30;57.00;;;;;;4797336;29;20096;-61
2021/03/04 03:55:37;;;;;;;9.35;6.07;;;15.30;57.00;;;;;;4796417;29;20043;-61
2021/03/04 03:58:03;;;;;;;9.43;5.47;;;15.30;57.00;;;;;;4797254;29;20115;-61
2021/03/04 04:00:30;;;;;;;11.35;9.30;;;15.30;56.90;;;;;;4797080;29;20050;-62
2021/03/04 04:02:59;;;;;;;9.85;8.45;;;14.90;53.80;;;;;;4797163;29;20034;-62
2021/03/04 04:05:26;;;;;;;12.02;9.40;;;14.00;53.20;;;;;;4798879;29;20058;-62
2021/03/04 04:07:56;;;;;;;10.00;8.20;;;13.30;53.90;;;;;;4800195;29;20053;-62
2021/03/04 04:10:24;;;;;;;10.55;8.10;;;12.50;54.50;;;;;;4800908;29;20038;-62
2021/03/04 04:12:50;;;;;;;10.25;7.95;;;11.80;55.80;;;;;;4800667;29;20049;-62
2021/03/04 04:15:16;;;;;;;11.50;7.72;;;11.20;56.90;;;;;;4779211;29;20414;-62
2021/03/04 04:17:42;;;;;;;10.88;7.80;;;10.70;58.00;;;;;;4814410;29;20047;-62
2021/03/04 04:20:09;;;;;;;8.32;7.35;;;10.40;58.90;;;;;;4799714;29;20507;-62
2021/03/04 04:22:35;;;;;;;9.25;6.93;;;10.00;59.80;;;;;;4800040;29;20039;-62
2021/03/04 04:25:01;;;;;;;9.40;7.28;;;9.80;60.40;;;;;;4800306;29;20039;-62
2021/03/04 04:27:27;;;;;;;8.85;6.82;;;9.50;61.00;;;;;;4800082;29;20106;-62
2021/03/04 04:29:53;;;;;;;9.38;7.35;;;9.30;61.60;;;;;;4800224;29;20053;-61
2021/03/04 04:32:19;;;;;;;9.18;7.03;;;9.10;62.10;;;;;;4800480;29;20051;-62
2021/03/04 04:34:45;;;;;;;10.57;7.40;;;8.90;62.60;;;;;;4799361;29;20066;-61
2021/03/04 04:37:11;;;;;;;10.32;7.18;;;8.80;63.80;;;;;;4800047;29;20043;-62
2021/03/04 04:39:37;;;;;;;8.48;6.53;;;8.70;64.40;;;;;;4799563;29;20735;-61
2021/03/04 04:42:03;;;;;;;8.93;7.05;;;8.70;64.90;;;;;;4799837;29;20047;-61
2021/03/04 04:44:29;;;;;;;9.40;6.60;;;8.70;64.60;;;;;;4800107;29;20092;-61
2021/03/04 04:46:55;;;;;;;8.48;6.57;;;8.70;64.50;;;;;;4800225;29;20035;-62
2021/03/04 04:49:20;;;;;;;8.73;6.90;;;8.60;64.80;;;;;;4800410;29;20077;-61
2021/03/04 04:51:46;;;;;;;8.10;6.38;;;8.60;65.50;;;;;;4799785;29;20070;-61
2021/03/04 04:54:12;;;;;;;7.68;6.70;;;8.50;64.80;;;;;;4799967;29;20122;-61
2021/03/04 04:56:38;;;;;;;8.15;6.65;;;8.50;64.80;;;;;;4800264;29;20622;-61
2021/03/04 04:59:04;;;;;;;8.88;7.05;;;8.40;64.80;;;;;;4798981;29;20046;-61
2021/03/04 05:01:30;;;;;;;8.05;6.75;;;8.40;65.10;;;;;;4799304;29;20047;-61
2021/03/04 05:03:55;;;;;;;8.90;6.80;;;8.30;65.50;;;;;;4799560;29;20121;-61
2021/03/04 05:06:21;;;;;;;7.88;6.00;;;8.30;65.90;;;;;;4799172;29;20795;-61
2021/03/04 05:08:47;;;;;;;9.57;6.88;;;8.20;66.00;;;;;;4799827;29;20086;-61
2021/03/04 05:11:15;;;;;;;9.00;6.55;;;8.20;66.30;;;;;;4799697;29;20479;-61
2021/03/04 05:13:41;;;;;;;8.55;6.93;;;8.20;66.40;;;;;;4799914;29;20073;-61
2021/03/04 05:16:07;;;;;;;8.07;6.93;;;8.20;67.30;;;;;;4799678;29;20423;-61
2021/03/04 05:18:32;;;;;;;7.35;5.32;;;8.20;67.20;;;;;;4798502;29;20045;-68
2021/03/04 05:20:58;;;;;;;8.40;6.28;;;8.10;67.70;;;;;;4799803;29;20039;-62
2021/03/04 05:23:24;;;;;;;11.00;7.55;;;8.10;67.30;;;;;;4799522;29;20592;-62
2021/03/04 05:25:50;;;;;;;8.23;6.43;;;8.10;67.30;;;;;;4799295;29;20034;-62
2021/03/04 05:28:15;;;;;;;9.35;6.85;;;8.10;67.20;;;;;;4799212;29;20051;-62
2021/03/04 05:30:41;;;;;;;8.43;6.80;;;8.10;67.90;;;;;;4799316;29;20047;-62
2021/03/04 05:33:07;;;;;;;9.80;6.28;;;8.10;68.10;;;;;;4798999;29;20084;-62
2021/03/04 05:35:33;;;;;;;7.95;6.75;;;8.20;67.90;;;;;;4799280;29;20047;-63
2021/03/04 05:38:00;;;;;;;9.82;7.25;;;8.10;67.30;;;;;;4798309;29;20038;-61
2021/03/04 05:40:26;;;;;;;9.57;7.03;;;8.00;67.20;;;;;;4793345;29;20062;-61
2021/03/04 05:42:52;;;;;;;9.52;7.65;;;8.00;67.30;;;;;;4799279;29;20050;-61
2021/03/04 05:45:23;;;;;;;8.90;7.50;;;7.90;67.90;;;;;;4798882;29;20039;-61
2021/03/04 05:47:52;;;;;;;9.07;7.28;;;7.90;68.80;;;;;;4798824;29;20046;-61
2021/03/04 05:50:21;;;;;;;8.38;6.82;;;7.90;68.40;;;;;;4793496;29;20100;-61
2021/03/04 05:52:52;;;;;;;10.13;6.90;;;7.90;68.50;;;;;;4799578;29;20051;-61
2021/03/04 05:55:25;;;;;;;11.00;7.00;;;7.90;68.80;;;;;;4812090;29;20047;-61
2021/03/04 05:57:51;;;;;;;9.73;6.55;;;7.90;68.30;;;;;;4799325;29;20034;-67
2021/03/04 06:00:18;;;;;;;7.72;6.15;;;7.90;68.60;;;;;;4799665;29;20051;-68
2021/03/04 06:02:46;;;;;;;8.30;6.30;;;7.90;68.70;;;;;;4799026;29;20487;-67
2021/03/04 06:05:13;;;;;;;9.02;6.85;;;7.90;69.00;;;;;;4798434;29;20062;-67
2021/03/04 06:07:43;;;;;;;7.30;5.75;;;8.00;68.60;;;;;;4799258;29;20055;-67
2021/03/04 06:10:11;;;;;;;7.65;4.88;;;8.00;68.90;;;;;;4798796;29;20057;-67
2021/03/04 06:12:39;;;;;;;8.05;5.78;;;8.00;69.50;;;;;;4798111;29;20043;-67
2021/03/04 06:15:10;;;;;;;8.52;5.95;;;7.90;69.30;;;;;;4797556;29;20047;-69
2021/03/04 06:17:36;;;;;;;9.00;5.35;;;7.90;70.00;;;;;;4798243;29;20047;-66
2021/03/04 06:20:07;;;;;;;7.35;5.35;;;8.00;70.40;;;;;;4799077;29;20043;-67
2021/03/04 06:22:38;;;;;;;7.93;5.93;;;8.00;69.40;;;;;;4798406;29;20050;-66
2021/03/04 06:25:09;;;;;;;9.88;5.85;;;8.00;69.60;;;;;;4797403;29;20054;-67
2021/03/04 06:27:42;;;;;;;8.48;5.55;;;8.00;70.40;;;;;;4796970;29;20054;-70
2021/03/04 06:30:13;;;;;;;6.82;5.07;;;8.00;70.70;;;;;;4797620;29;20059;-68
2021/03/04 06:32:41;;;;;;;7.95;5.68;;;8.10;70.50;;;;;;4798089;29;20129;-68
2021/03/04 06:35:08;;;;;;;6.60;5.13;;;8.10;69.70;;;;;;4812239;29;20047;-67
2021/03/04 06:37:36;;;;;;;11.80;7.40;;;8.00;69.20;;;;;;4797308;29;20183;-67
2021/03/04 06:40:16;;;;;;;8.98;6.05;;;8.00;69.30;;;;;;4793311;29;20042;-68
2021/03/04 06:42:43;;;;;;;7.95;5.10;;;8.00;69.30;;;;;;4798407;29;20042;-67
2021/03/04 06:45:37;;;;;;;7.03;5.22;;;8.10;69.80;;;;;;4797955;29;20042;-68
2021/03/04 06:48:06;;;;;;;7.00;4.22;;;8.10;69.30;;;;;;4797573;29;20130;-68
2021/03/04 06:50:32;;;;;;;5.40;4.45;;;8.10;69.20;;;;;;4798456;29;22278;-66
2021/03/04 06:52:58;;;;;;;8.35;5.10;;;8.00;68.90;;;;;;4796838;29;20050;-67
2021/03/04 06:55:24;;;;;;;7.60;4.18;;;8.00;69.30;;;;;;4797903;29;20054;-67
2021/03/04 06:58:03;;;;;;;6.72;4.45;;;8.00;69.00;;;;;;4793169;29;20042;-67
2021/03/04 07:00:29;;;;;;;5.88;3.92;;;8.00;69.00;;;;;;4796756;29;21072;-66
2021/03/04 07:02:57;;;;;;;7.45;3.88;;;8.00;69.60;;;;;;4797693;29;20456;-67
2021/03/04 07:05:25;;;;;;;6.05;4.00;;;8.00;70.50;;;;;;4795595;29;20086;-66
2021/03/04 07:07:53;;;;;;;6.28;4.38;;;8.00;70.00;;;;;;4791218;29;20070;-66
2021/03/04 07:10:23;;;;;;;5.32;3.95;;;8.00;70.00;;;;;;4794193;29;20050;-68
2021/03/04 07:12:49;;;;;;;8.13;4.15;;;8.00;70.90;;;;;;4793903;29;20050;-61
2021/03/04 07:15:19;;;;;;;6.50;3.47;;;8.10;70.30;;;;;;4794158;29;20077;-61
2021/03/04 07:17:50;;;;;;;5.45;3.40;;;8.10;70.60;;;;;;4796154;29;20492;-62
2021/03/04 07:20:18;;;;;;;4.80;3.15;;;8.10;70.20;;;;;;4794055;29;20047;-61
2021/03/04 07:22:48;;;;;;;3.92;2.90;;;8.20;70.10;;;;;;4794766;29;20114;-61
2021/03/04 07:25:15;;;;;;;6.75;4.03;;;8.20;69.50;;;;;;4796848;29;20108;-61
2021/03/04 07:27:42;;;;;;;5.15;3.60;;;8.10;69.40;;;;;;4796355;29;20108;-61
2021/03/04 07:30:10;;;;;;;5.85;3.30;;;8.10;70.30;;;;;;4797311;29;20510;-61
2021/03/04 07:32:36;;;;;;;9.77;3.85;;;8.10;69.80;;;;;;4792342;29;20043;-62
2021/03/04 07:35:09;;;;;;;6.82;4.32;;;8.10;70.00;;;;;;4796556;29;22192;-61
2021/03/04 07:37:38;;;;;;;5.35;2.63;;;8.10;70.50;;;;;;4794603;29;20679;-61
2021/03/04 07:40:04;;;;;;;7.72;4.45;;;8.00;69.70;;;;;;4794425;29;20047;-61
2021/03/04 07:42:33;;;;;;;5.43;3.45;;;8.00;69.90;;;;;;4797415;29;20543;-61
2021/03/04 07:45:09;;;;;;;7.00;5.50;;;7.90;70.30;;;;;;4797088;29;20047;-61
2021/03/04 07:47:35;;;;;;;5.50;4.43;;;8.00;71.30;;;;;;4795650;29;20133;-62
2021/03/04 07:50:01;;;;;;;5.93;3.60;;;8.00;71.20;;;;;;4797470;29;20069;-61
2021/03/04 07:52:27;;;;;;;5.47;3.60;;;8.10;71.10;;;;;;4790279;29;20038;-62
2021/03/04 07:54:55;;;;;;;11.13;7.10;;;8.10;70.90;;;;;;4796735;29;22345;-61
2021/03/04 07:57:23;;;;;;;67.03;40.75;;;8.30;71.00;;;;;;4796108;29;20111;-61
2021/03/04 07:59:58;;;;;;;33.92;19.98;;;8.20;70.70;;;;;;4797009;29;20165;-61
2021/03/04 08:02:35;;;;;;;81.35;44.25;;;8.30;70.70;;;;;;4796999;29;20408;-61
2021/03/04 08:05:30;;;;;;;53.70;32.63;;;8.30;70.60;;;;;;4794479;29;20081;-62
2021/03/04 08:07:56;;;;;;;14.90;11.02;;;8.40;71.00;;;;;;4795236;29;20507;-61
2021/03/04 08:10:24;;;;;;;9.10;5.90;;;8.30;70.30;;;;;;4797054;29;20165;-61
2021/03/04 08:12:58;;;;;;;63.03;36.08;;;8.30;69.70;;;;;;4796473;29;20432;-61
2021/03/04 08:15:32;;;;;;;62.30;35.72;;;8.40;70.10;;;;;;4796401;29;20514;-62
2021/03/04 08:17:58;;;;;;;66.10;41.53;;;8.40;71.00;;;;;;4797066;29;20054;-61
2021/03/04 08:20:25;;;;;;;20.40;11.68;;;8.40;71.10;;;;;;4796420;29;20066;-61
2021/03/04 08:22:56;;;;;;;41.50;24.80;;;8.40;71.10;;;;;;4796461;29;20197;-61
2021/03/04 08:25:32;;;;;;;30.17;19.77;;;8.50;70.80;;;;;;4796964;29;20043;-62
2021/03/04 08:27:59;;;;;;;25.48;15.75;;;8.50;71.10;;;;;;4796521;29;20047;-61
2021/03/04 08:30:32;;;;;;;25.63;15.88;;;8.60;71.10;;;;;;4796534;29;20104;-62
2021/03/04 08:33:03;;;;;;;6.03;3.25;;;8.60;70.80;;;;;;4795329;29;20483;-61
2021/03/04 08:35:29;;;;;;;11.30;6.50;;;8.50;70.30;;;;;;4795138;29;20046;-61
2021/03/04 08:38:05;;;;;;;11.05;5.20;;;8.50;70.20;;;;;;4796222;29;20484;-61
2021/03/04 08:40:42;;;;;;;21.38;13.68;;;8.50;70.00;;;;;;4797067;29;20071;-62
2021/03/04 08:43:29;;;;;;;14.05;8.75;;;8.50;70.90;;;;;;4796348;29;20924;-61
2021/03/04 08:46:00;;;;;;;6.03;2.78;;;8.60;71.20;;;;;;4794435;29;20057;-62
2021/03/04 08:48:26;;;;;;;19.55;10.57;;;8.60;70.50;;;;;;4793730;29;20151;-62
2021/03/04 08:50:54;;;;;;;15.45;8.30;;;8.70;70.40;;;;;;4792060;29;20560;-62
2021/03/04 08:53:25;;;;;;;12.25;7.03;;;8.70;70.50;;;;;;4798556;29;20555;-65
2021/03/04 08:55:56;;;;;;;4.10;2.08;;;8.70;70.60;;;;;;4798607;29;20051;-63
2021/03/04 08:58:24;;;;;;;12.38;7.40;;;8.80;70.10;;;;;;4796982;29;20065;-63
2021/03/04 09:00:53;;;;;;;5.00;2.60;;;8.80;70.30;;;;;;4799550;29;20099;-61
2021/03/04 09:03:20;;;;;;;12.02;6.72;;;8.90;69.80;;;;;;4799769;29;20056;-63
2021/03/04 09:05:46;;;;;;;9.95;6.50;;;8.90;70.10;;;;;;4799239;29;20069;-63
2021/03/04 09:08:13;;;;;;;13.00;7.38;;;8.80;70.50;;;;;;4799972;29;20039;-63
2021/03/04 09:10:48;;;;;;;4.28;2.63;;;8.80;70.80;;;;;;4798667;29;20051;-63
2021/03/04 09:13:24;;;;;;;7.68;4.05;;;8.90;71.00;;;;;;4799610;29;20514;-63
2021/03/04 09:15:55;;;;;;;4.75;2.45;;;9.00;70.30;;;;;;4792469;29;20070;-62
2021/03/04 09:18:23;;;;;;;5.82;1.92;;;8.90;69.70;;;;;;4799266;29;20102;-62
2021/03/04 09:20:53;;;;;;;4.43;2.33;;;8.90;69.50;;;;;;4799476;29;20137;-62
2021/03/04 09:23:20;;;;;;;4.95;3.25;;;9.00;69.50;;;;;;4799208;29;20170;-63
2021/03/04 09:25:47;;;;;;;9.02;1.85;;;9.00;69.50;;;;;;4813120;29;20050;-62
2021/03/04 09:28:15;;;;;;;6.05;1.85;;;9.00;69.50;;;;;;4799401;29;20054;-62
2021/03/04 09:30:41;;;;;;;9.68;2.00;;;9.10;69.20;;;;;;4799720;29;20125;-63
2021/03/04 09:33:22;;;;;;;5.22;3.47;;;9.10;69.20;;;;;;4799207;29;20045;-64
2021/03/04 09:35:55;;;;;;;6.18;1.45;;;9.10;69.30;;;;;;4798433;29;20109;-65
2021/03/04 09:38:22;;;;;;;11.68;3.10;;;9.10;69.20;;;;;;4798656;29;20372;-63
2021/03/04 09:40:47;;;;;;;6.95;3.33;;;9.10;69.60;;;;;;4798389;29;20050;-63
2021/03/04 09:43:15;;;;;;;4.35;1.25;;;9.20;69.80;;;;;;4798672;29;20054;-63
2021/03/04 09:45:50;;;;;;;4.55;2.38;;;9.30;69.50;;;;;;4795981;29;20069;-61
2021/03/04 09:48:28;;;;;;;4.68;1.35;;;9.30;69.40;;;;;;4795470;29;20131;-61
2021/03/04 09:50:54;;;;;;;6.93;1.83;;;9.30;69.10;;;;;;4796824;29;20047;-61
2021/03/04 09:53:20;;;;;;;8.07;2.42;;;9.40;69.10;;;;;;4795274;29;20073;-61
2021/03/04 09:55:47;;;;;;;9.98;4.25;;;9.40;69.20;;;;;;4795898;29;20451;-61
2021/03/04 09:58:16;;;;;;;6.10;1.98;;;9.40;69.60;;;;;;4792099;29;20145;-62
2021/03/04 10:00:43;;;;;;;8.45;1.45;;;9.50;69.30;;;;;;4795889;29;20433;-61
2021/03/04 10:03:13;;;;;;;13.15;6.65;;;9.60;68.80;;;;;;4793094;29;20046;-61
2021/03/04 10:05:49;;;;;;;11.30;6.90;;;9.60;71.30;;;;;;4791327;29;20055;-61
2021/03/04 10:08:18;;;;;;;12.15;6.75;;;10.20;73.60;;;;;;4809142;29;20054;-60
2021/03/04 10:10:49;;;;;;;9.50;5.43;;;10.90;73.40;;;;;;4796578;29;20053;-60
2021/03/04 10:13:26;;;;;;;13.63;6.82;;;11.60;71.80;;;;;;4794837;29;20082;-61
2021/03/04 10:15:53;;;;;;;9.88;5.13;;;12.20;70.30;;;;;;4796153;29;20146;-60
2021/03/04 10:18:19;;;;;;;8.77;5.22;;;12.60;68.80;;;;;;4795833;29;20054;-61
2021/03/04 10:20:46;;;;;;;8.48;4.60;;;13.00;67.70;;;;;;4795807;29;20072;-62
2021/03/04 10:23:16;;;;;;;9.60;4.50;;;13.20;66.90;;;;;;4796029;29;20072;-62
2021/03/04 10:25:43;;;;;;;7.78;4.13;;;13.40;65.70;;;;;;4795427;29;20498;-61
2021/03/04 10:28:10;;;;;;;7.80;2.83;;;13.50;65.40;;;;;;4809165;29;20145;-63
2021/03/04 10:30:38;;;;;;;8.82;2.85;;;13.50;63.80;;;;;;4795536;29;20055;-65
2021/03/04 10:33:05;;;;;;;6.25;2.88;;;13.50;63.40;;;;;;4796124;29;20055;-68
2021/03/04 10:35:31;;;;;;;8.82;3.03;;;13.60;63.40;;;;;;4796678;29;20050;-68
2021/03/04 10:37:57;;;;;;;10.75;3.03;;;13.50;62.80;;;;;;4795625;29;20547;-68
2021/03/04 10:40:23;;;;;;;10.15;2.33;;;13.30;61.20;;;;;;4796228;29;20047;-68
2021/03/04 10:42:50;;;;;;;12.18;2.53;;;12.80;59.90;;;;;;4793165;29;20049;-68
2021/03/04 10:45:18;;;;;;;10.65;2.38;;;12.30;59.80;;;;;;4795913;29;20050;-65
2021/03/04 10:47:46;;;;;;;14.75;3.15;;;12.00;61.10;;;;;;4794288;29;20137;-69
2021/03/04 10:50:15;;;;;;;15.48;3.30;;;11.60;61.20;;;;;;4795499;29;20780;-67
2021/03/04 10:52:40;;;;;;;12.35;2.88;;;11.30;61.90;;;;;;4796842;29;20567;-68
2021/03/04 10:55:09;;;;;;;16.92;2.83;;;11.20;63.50;;;;;;4796323;29;20038;-69
2021/03/04 10:57:36;;;;;;;13.30;2.47;;;11.00;62.40;;;;;;4796690;29;20069;-69
2021/03/04 11:00:13;;;;;;;12.95;2.85;;;10.70;62.90;;;;;;4795092;29;20164;-68
2021/03/04 11:02:39;;;;;;;14.88;2.75;;;10.60;64.50;;;;;;4795582;29;20046;-68
2021/03/04 11:05:07;;;;;;;17.05;3.00;;;10.50;64.60;;;;;;4792426;29;20051;-68
2021/03/04 11:07:39;;;;;;;21.20;4.18;;;10.40;64.30;;;;;;4794695;29;20043;-68
2021/03/04 11:10:07;;;;;;;21.27;4.10;;;10.00;64.00;;;;;;4809131;29;20106;-68
2021/03/04 11:12:34;;;;;;;17.42;3.13;;;9.80;64.60;;;;;;4794250;29;20069;-67
2021/03/04 11:14:59;;;;;;;15.25;2.90;;;9.70;65.70;;;;;;4793687;29;20046;-67
2021/03/04 11:17:25;;;;;;;21.27;4.05;;;9.60;66.50;;;;;;4792486;29;20121;-67
2021/03/04 11:19:51;;;;;;;19.35;3.28;;;9.50;66.00;;;;;;4795100;29;20051;-67
2021/03/04 11:22:17;;;;;;;23.08;4.85;;;9.40;66.10;;;;;;4794791;29;20043;-69
2021/03/04 11:24:46;;;;;;;20.63;3.60;;;9.20;66.00;;;;;;4794793;29;20047;-68
2021/03/04 11:27:13;;;;;;;20.15;4.95;;;9.10;65.80;;;;;;4793659;29;21254;-68
2021/03/04 11:29:39;;;;;;;20.27;3.35;;;9.00;66.20;;;;;;4796424;29;20548;-68
2021/03/04 11:32:05;;;;;;;15.98;3.00;;;9.00;67.10;;;;;;4794895;29;20046;-68
2021/03/04 11:34:31;;;;;;;20.65;3.88;;;9.00;67.40;;;;;;4795698;29;20174;-68
2021/03/04 11:36:57;;;;;;;16.35;3.85;;;9.10;65.90;;;;;;4794857;29;20134;-69
2021/03/04 11:39:23;;;;;;;23.13;4.25;;;9.20;66.40;;;;;;4794123;29;20047;-68
2021/03/04 11:41:48;;;;;;;16.17;3.83;;;9.30;65.10;;;;;;4794140;29;20091;-69
2021/03/04 11:44:14;;;;;;;11.77;2.55;;;9.40;65.40;;;;;;4793173;29;20112;-68
2021/03/04 11:46:40;;;;;;;21.85;4.13;;;9.50;66.00;;;;;;4795310;29;20074;-69
2021/03/04 11:49:07;;;;;;;27.55;4.45;;;9.50;64.30;;;;;;4790434;29;20039;-70
2021/03/04 11:51:33;;;;;;;14.85;3.38;;;9.50;64.00;;;;;;4793510;29;21393;-70
2021/03/04 11:53:59;;;;;;;19.70;3.47;;;9.50;64.90;;;;;;4789154;29;20035;-69
2021/03/04 11:56:24;;;;;;;24.23;3.30;;;9.60;64.60;;;;;;4794850;29;20043;-69
2021/03/04 11:58:51;;;;;;;19.75;3.22;;;9.60;63.90;;;;;;4794627;29;20046;-69
2021/03/04 12:01:17;;;;;;;19.80;3.15;;;9.50;64.30;;;;;;4793558;29;20047;-70
2021/03/04 12:03:42;;;;;;;17.70;3.08;;;9.40;63.10;;;;;;4795378;29;20047;-69
2021/03/04 12:06:08;;;;;;;11.60;3.42;;;9.30;62.90;;;;;;4795542;29;20123;-69
2021/03/04 12:08:34;;;;;;;16.30;3.38;;;9.20;62.20;;;;;;4794902;29;20047;-68
2021/03/04 12:11:00;;;;;;;17.42;3.40;;;9.10;62.00;;;;;;4795026;29;20039;-68
2021/03/04 12:13:31;;;;;;;18.05;2.95;;;9.00;62.40;;;;;;4794693;29;20047;-68
2021/03/04 12:15:58;;;;;;;18.00;3.15;;;8.90;62.80;;;;;;4791918;29;20038;-68
2021/03/04 12:18:24;;;;;;;15.63;3.10;;;9.10;64.00;;;;;;4794900;29;20046;-69
2021/03/04 12:20:51;;;;;;;19.73;3.65;;;9.40;63.10;;;;;;4793847;29;20082;-69
2021/03/04 12:23:16;;;;;;;22.20;5.07;;;9.60;61.70;;;;;;4794438;29;20040;-69
2021/03/04 12:25:42;;;;;;;20.98;4.40;;;9.50;61.50;;;;;;4795521;29;20047;-69
2021/03/04 12:28:08;;;;;;;20.17;3.67;;;9.40;61.60;;;;;;4778408;29;20483;-68
2021/03/04 12:30:34;;;;;;;18.13;3.63;;;9.20;61.70;;;;;;4798464;29;20140;-67
2021/03/04 12:33:00;;;;;;;15.50;3.17;;;9.20;64.40;;;;;;4797760;29;20043;-69
2021/03/04 12:35:25;;;;;;;21.70;4.32;;;9.40;65.60;;;;;;4797611;29;20070;-68
2021/03/04 12:37:51;;;;;;;10.82;3.17;;;9.50;64.40;;;;;;4798223;29;20479;-68
2021/03/04 12:40:17;;;;;;;19.90;3.20;;;9.70;66.20;;;;;;4796701;29;20043;-67
2021/03/04 12:42:43;;;;;;;25.35;4.07;;;10.10;65.90;;;;;;4798847;29;20117;-68
2021/03/04 12:45:10;;;;;;;19.15;3.63;;;10.10;62.30;;;;;;4798431;29;20053;-68
2021/03/04 12:47:35;;;;;;;20.95;4.00;;;10.10;63.30;;;;;;4796389;29;20078;-67
2021/03/04 12:50:02;;;;;;;21.38;4.50;;;10.10;62.40;;;;;;4797714;29;20117;-69